Ansley, NE (68814)

5:39 PM CDT on June 20, 2018 (GMT -0500)
Box Elder RD | | Change Station

Elev 2549 ft 41.23 °N, 99.42 °W | Updated 27 seconds ago

Rain
Rain
61.7 °F
Feels Like 61.7 °F
N
7.16
Wind Variable Wind from NW
Gusts 10.1 mph

Today
High -- | Low -- °F
--% Chance of Precip.
Yesterday
High -- | Low -- °F
Precip. -- in
Pressure 29.93 in
Visibility 10.0 miles
Clouds Few 2200 ft
Overcast 9500 ft
Dew Point 59 °F
Humidity 90%
Rainfall 0.65 in
Snow Depth Not available.
6:04 AM 9:13 PM
First Quarter, 55% visible
METAR KBBW 202153Z AUTO 36010G19KT 10SM -RA FEW022 OVC095 18/14 A2997 RMK AO2 PK WND 34028/2055 RAB00E25B45 SLP133 P0001 T01780144
Pressure 29.93 in
Visibility 10.0 miles
Clouds Few 2200 ft
Overcast 9500 ft
Dew Point 59 °F
Humidity 90%
Rainfall 0.65 in
Snow Depth Not available.
6:04 AM 9:13 PM
First Quarter, 55% visible
METAR KBBW 202153Z AUTO 36010G19KT 10SM -RA FEW022 OVC095 18/14 A2997 RMK AO2 PK WND 34028/2055 RAB00E25B45 SLP133 P0001 T01780144

Get Severe Weather Alerts

Thanks for signing up!

Be on the lookout for a verification email in your inbox.

You'll start receiving the daily forecast at 6 AM.

×

10-Day Weather Forecast

Almanac

Astronomy

Jun. 20, 2018 Rise Set
Actual Time
Civil Twilight
Nautical Twilight
Astronomical Twilight
Moon
Length of Visible Light
Length of Day
Tomorrow will be .
, % of the Moon is Illuminated

Today's Extremes

State Highs State Lows

Community

WunderPhotos

Category 6

Welcome to Category 6. This is the collective home for Weather Underground's featured writeups by Dr. Jeff Masters (right), Bob Henson (left), Chris Burt, and other regular contributors.

Nearby

Air Quality

  Air Quality AQ Index Pollutant
Not available.

Snow Depth

Station Depth Elevation

Earthquake Activity

City Distance Mag. Time & Date
Minimum magnitude displayed is 2.5.

Coastal Water Temperatures

Place Temperature

Stations

Nearby Weather Stations

Station Location Temp. Windchill Dew Point Humidity Wind Precip. Elev Updated Type
                   

Watches & Warnings

There are currently no watches in effect.